Time;durP1;ratioP1;P1;durP2;ratioP2;P2;SDS_P1;SDS_P2;PMS_P1;PMS_P2;Temp;Humidity;BMP_temperature;BMP_pressure;BME280_temperature;BME280_humidity;BME280_pressure;Samples;Min_cycle;Max_cycle;Signal;HPM_P1;HPM_P2
2023/09/01 00:01:15;;;;;;;3.00;2.70;;;;;;;13.22;100.00;101194.41;6249472;22;20019;-75
2023/09/01 00:04:00;;;;;;;4.30;2.90;;;;;;;13.22;100.00;101205.09;6250359;22;20108;-75
2023/09/01 00:06:27;;;;;;;3.30;3.10;;;;;;;13.22;100.00;101197.81;6249459;22;20017;-75
2023/09/01 00:08:54;;;;;;;3.50;3.20;;;;;;;13.22;100.00;101202.44;6250214;22;20020;-76
2023/09/01 00:11:20;;;;;;;3.30;3.10;;;;;;;13.22;100.00;101205.84;6197062;22;20099;-76
2023/09/01 00:13:47;;;;;;;3.65;3.33;;;;;;;13.22;100.00;101210.44;6250398;22;20016;-75
2023/09/01 00:16:14;;;;;;;3.75;3.45;;;;;;;13.20;100.00;101210.91;6249074;22;20071;-76
2023/09/01 00:18:41;;;;;;;2.80;2.60;;;;;;;13.18;100.00;101207.22;6250021;22;20016;-76
2023/09/01 00:21:08;;;;;;;2.88;2.67;;;;;;;13.17;100.00;101211.06;6249741;22;20091;-76
2023/09/01 00:23:34;;;;;;;3.20;2.90;;;;;;;13.18;100.00;101207.22;6222664;22;20075;-76
2023/09/01 00:26:01;;;;;;;2.90;2.70;;;;;;;13.19;100.00;101203.34;6250193;22;20028;-76
2023/09/01 00:28:28;;;;;;;2.90;2.70;;;;;;;13.17;100.00;101206.47;6249244;22;20020;-76
2023/09/01 00:30:57;;;;;;;5.20;2.55;;;;;;;13.16;100.00;101204.25;6222517;22;20071;-76
2023/09/01 00:33:26;;;;;;;5.00;3.10;;;;;;;13.17;100.00;101198.44;6197126;22;20012;-76
2023/09/01 00:35:54;;;;;;;3.15;2.92;;;;;;;13.17;100.00;101198.44;6222578;22;20025;-75
2023/09/01 00:38:22;;;;;;;5.70;2.80;;;;;;;13.16;100.00;101204.25;6222079;22;20016;-75
2023/09/01 00:40:48;;;;;;;5.60;2.85;;;;;;;13.13;100.00;101208.50;6222565;22;20021;-75
2023/09/01 00:43:16;;;;;;;4.00;2.95;;;;;;;13.10;100.00;101209.41;6249741;22;20067;-76
2023/09/01 00:45:43;;;;;;;2.83;2.63;;;;;;;13.10;100.00;101206.72;6221829;22;20066;-76
2023/09/01 00:48:11;;;;;;;4.82;3.17;;;;;;;13.10;100.00;101204.06;6222871;22;20445;-75
2023/09/01 00:50:40;;;;;;;4.95;3.08;;;;;;;13.08;100.00;101209.09;6222917;22;20479;-75
2023/09/01 00:53:08;;;;;;;3.72;2.70;;;;;;;13.06;100.00;101210.72;6222146;22;20021;-75
2023/09/01 00:55:35;;;;;;;2.60;2.40;;;;;;;13.00;100.00;101219.34;6249444;22;20438;-75
2023/09/01 00:58:02;;;;;;;3.30;3.00;;;;;;;12.98;100.00;101219.03;6222824;22;20018;-75
2023/09/01 01:00:31;;;;;;;4.97;2.90;;;;;;;12.96;100.00;101218.72;6221524;22;20469;-76
2023/09/01 01:03:05;;;;;;;3.63;2.70;;;;;;;12.96;100.00;101209.97;6250010;22;20067;-75
2023/09/01 01:06:09;;;;;;;4.35;3.10;;;;;;;12.94;100.00;101218.44;6222671;22;20031;-75
2023/09/01 01:08:46;;;;;;;3.22;3.03;;;;;;;12.91;100.00;101205.22;6222754;22;20099;-77
2023/09/01 01:11:19;;;;;;;2.85;2.58;;;;;;;12.88;100.00;101222.88;6222401;22;20418;-75
2023/09/01 01:13:50;;;;;;;4.30;3.13;;;;;;;12.84;100.00;101216.94;6221969;22;20016;-75
2023/09/01 01:16:17;;;;;;;5.53;2.95;;;;;;;12.83;100.00;101218.13;6222551;22;20542;-75
2023/09/01 01:18:47;;;;;;;3.65;3.25;;;;;;;12.83;100.00;101220.78;6249843;22;20027;-75
2023/09/01 01:21:21;;;;;;;6.78;3.00;;;;;;;12.81;100.00;101219.75;6249336;22;20063;-76
2023/09/01 01:23:52;;;;;;;4.22;2.80;;;;;;;12.77;100.00;101225.25;6249381;22;20017;-76
2023/09/01 01:26:19;;;;;;;3.40;3.10;;;;;;;12.74;100.00;101225.38;6248941;22;20012;-76
2023/09/01 01:28:46;;;;;;;4.05;2.95;;;;;;;12.69;100.00;101222.09;6222185;22;20106;-76
2023/09/01 01:31:13;;;;;;;3.58;2.83;;;;;;;12.66;100.00;101223.00;6249470;22;20023;-75
2023/09/01 01:34:04;;;;;;;3.25;2.95;;;;;;;12.65;100.00;101221.50;6222313;22;20024;-75
2023/09/01 01:36:41;;;;;;;2.78;2.58;;;;;;;12.60;100.00;101214.06;6249329;22;20052;-76
2023/09/01 01:39:28;;;;;;;3.67;2.83;;;;;;;12.59;100.00;101220.59;6249053;22;20100;-75
2023/09/01 01:41:57;;;;;;;3.13;2.92;;;;;;;12.58;100.00;101216.44;6249142;22;20100;-76
2023/09/01 01:44:29;;;;;;;2.90;2.70;;;;;;;12.58;100.00;101221.03;6248895;22;20017;-76
2023/09/01 01:46:56;;;;;;;4.15;2.95;;;;;;;12.56;100.00;101218.81;6249820;22;20272;-75
2023/09/01 01:49:23;;;;;;;5.07;2.85;;;;;;;12.55;100.00;101217.31;6221812;22;20449;-76
2023/09/01 01:51:49;;;;;;;6.68;2.80;;;;;;;12.53;100.00;101222.34;6249758;22;20064;-76
2023/09/01 01:54:16;;;;;;;2.70;2.50;;;;;;;12.52;100.00;101222.78;6249217;22;20430;-76
2023/09/01 01:56:43;;;;;;;4.10;3.00;;;;;;;12.52;100.00;101226.22;6249071;22;20025;-76
2023/09/01 01:59:10;;;;;;;2.90;2.70;;;;;;;12.51;100.00;101226.66;6221849;22;20361;-75
2023/09/01 02:01:37;;;;;;;2.72;2.53;;;;;;;12.51;100.00;101223.97;6221984;22;20052;-75
2023/09/01 02:04:05;;;;;;;3.00;2.75;;;;;;;12.51;100.00;101226.66;6222179;22;20073;-76
2023/09/01 02:06:32;;;;;;;6.03;2.95;;;;;;;12.50;100.00;101225.16;6222055;22;20028;-76
2023/09/01 02:08:59;;;;;;;2.80;2.45;;;;;;;12.48;100.00;101222.94;6222301;22;20024;-75
2023/09/01 02:11:25;;;;;;;4.70;2.78;;;;;;;12.46;100.00;101213.88;6220785;22;20095;-75
2023/09/01 02:13:52;;;;;;;3.83;3.40;;;;;;;12.45;100.00;101221.13;6222438;22;20059;-77
2023/09/01 02:16:18;;;;;;;4.22;3.60;;;;;;;12.44;100.00;101221.56;6221721;22;20025;-75
2023/09/01 02:18:45;;;;;;;4.47;3.97;;;;;;;12.42;100.00;101218.59;6222075;22;20424;-76
2023/09/01 02:21:20;;;;;;;6.03;4.38;;;;;;;12.41;100.00;101230.47;6221819;22;20016;-76
2023/09/01 02:23:48;;;;;;;3.85;3.50;;;;;;;12.38;100.00;101226.78;6249574;22;20080;-76
2023/09/01 02:26:21;;;;;;;6.47;4.57;;;;;;;12.39;100.00;101222.19;6221168;22;20020;-76
2023/09/01 02:28:49;;;;;;;4.30;4.00;;;;;;;12.36;100.00;101223.81;6249323;22;20013;-76
2023/09/01 02:31:17;;;;;;;4.40;3.53;;;;;;;12.33;100.00;101224.69;6221522;22;20393;-76
2023/09/01 02:33:44;;;;;;;3.33;3.10;;;;;;;12.29;100.00;101222.13;6222517;22;20017;-76
2023/09/01 02:36:28;;;;;;;2.50;2.40;;;;;;;12.27;100.00;101221.84;6250077;22;20025;-76
2023/09/01 02:38:56;;;;;;;3.10;2.90;;;;;;;12.21;100.00;101223.59;6223203;22;20060;-76
2023/09/01 02:41:23;;;;;;;3.85;2.70;;;;;;;12.19;100.00;101220.59;6249384;22;20089;-76
2023/09/01 02:43:51;;;;;;;3.35;2.88;;;;;;;12.18;100.00;101216.44;6250501;22;20020;-76
2023/09/01 02:46:18;;;;;;;3.30;3.05;;;;;;;12.17;100.00;101214.22;6222577;22;20806;-76
2023/09/01 02:48:45;;;;;;;5.43;3.28;;;;;;;12.17;100.00;101211.53;6223165;22;20103;-76
2023/09/01 02:51:11;;;;;;;5.88;3.35;;;;;;;12.17;100.00;101209.63;6249994;22;20027;-76
2023/09/01 02:53:38;;;;;;;4.97;3.90;;;;;;;12.17;100.00;101208.88;6223067;22;20023;-76
2023/09/01 02:56:05;;;;;;;4.32;3.75;;;;;;;12.18;100.00;101216.44;6249738;22;20028;-76
2023/09/01 02:58:34;;;;;;;6.07;4.20;;;;;;;12.19;100.00;101217.94;6222623;22;20017;-76
2023/09/01 03:01:07;;;;;;;7.00;4.35;;;;;;;12.20;100.00;101213.34;6250390;22;20514;-76
2023/09/01 03:03:40;;;;;;;4.60;4.20;;;;;;;12.21;100.00;101215.56;6222938;22;20027;-76
2023/09/01 03:06:10;;;;;;;7.68;4.57;;;;;;;12.21;100.00;101215.56;6222860;22;20059;-76
2023/09/01 03:08:38;;;;;;;4.88;4.22;;;;;;;12.21;100.00;101212.91;6223117;22;20024;-76
2023/09/01 03:11:06;;;;;;;8.40;4.25;;;;;;;12.22;100.00;101202.97;6222520;22;20438;-76
2023/09/01 03:13:33;;;;;;;4.13;3.75;;;;;;;12.23;100.00;101201.78;6222839;22;20016;-76
2023/09/01 03:16:00;;;;;;;7.40;3.83;;;;;;;12.24;100.00;101204.03;6223062;22;20025;-76
2023/09/01 03:18:27;;;;;;;4.53;3.85;;;;;;;12.25;100.00;101189.50;6222347;22;20108;-76
2023/09/01 03:20:56;;;;;;;5.95;4.32;;;;;;;12.25;100.00;101189.50;6223251;22;20075;-76
2023/09/01 03:23:23;;;;;;;6.70;4.30;;;;;;;12.26;100.00;101182.97;6221689;22;20028;-76
2023/09/01 03:25:56;;;;;;;8.43;4.22;;;;;;;12.29;100.00;101176.75;6223068;22;20447;-76
2023/09/01 03:28:24;;;;;;;8.23;4.88;;;;;;;12.31;100.00;101185.06;6249714;22;20102;-76
2023/09/01 03:30:51;;;;;;;9.25;4.40;;;;;;;12.32;100.00;101189.22;6250265;22;20017;-76
2023/09/01 03:33:21;;;;;;;4.90;4.40;;;;;;;12.32;100.00;101186.56;6222105;22;20095;-76
2023/09/01 03:35:48;;;;;;;5.07;4.53;;;;;;;12.34;100.00;101178.09;6250152;22;20021;-76
2023/09/01 03:38:15;;;;;;;5.55;4.25;;;;;;;12.37;100.00;101174.56;6222394;22;20016;-76
2023/09/01 03:40:42;;;;;;;5.25;4.75;;;;;;;12.37;100.00;101187.16;6197611;22;20031;-76
2023/09/01 03:43:09;;;;;;;4.75;4.30;;;;;;;12.37;100.00;101185.25;6249758;22;20092;-76
2023/09/01 03:45:36;;;;;;;7.65;3.60;;;;;;;12.35;100.00;101188.34;6222010;22;20115;-76
2023/09/01 03:48:03;;;;;;;7.22;3.88;;;;;;;12.37;100.00;101189.84;6222852;22;20017;-76
2023/09/01 03:50:33;;;;;;;4.20;3.80;;;;;;;12.35;100.00;101190.28;6222597;22;20013;-76
2023/09/01 03:53:01;;;;;;;6.43;4.15;;;;;;;12.31;100.00;101182.41;6249864;22;20039;-76
2023/09/01 03:55:27;;;;;;;4.55;3.60;;;;;;;12.34;100.00;101181.53;6249419;22;20021;-76
2023/09/01 03:57:54;;;;;;;5.60;4.03;;;;;;;12.38;100.00;101183.31;6223084;22;20052;-76
2023/09/01 04:00:22;;;;;;;4.90;4.40;;;;;;;12.41;100.00;101177.06;6222302;22;20017;-76
2023/09/01 04:02:49;;;;;;;8.80;5.53;;;;;;;12.42;100.00;101176.63;6250067;22;20088;-76
2023/09/01 04:05:16;;;;;;;8.18;6.13;;;;;;;12.45;100.00;101175.00;6249711;22;20461;-76
2023/09/01 04:07:43;;;;;;;9.00;6.72;;;;;;;12.47;100.00;101177.97;6249540;22;20012;-76
2023/09/01 04:10:10;;;;;;;8.63;6.35;;;;;;;12.47;100.00;101176.06;6249853;22;20020;-76
2023/09/01 04:12:36;;;;;;;7.68;6.22;;;;;;;12.49;100.00;101179.03;6222437;22;20028;-76
2023/09/01 04:15:03;;;;;;;8.43;6.35;;;;;;;12.51;100.00;101178.59;6197838;22;20501;-76
2023/09/01 04:17:31;;;;;;;11.73;7.30;;;;;;;12.53;100.00;101176.22;6222243;22;20109;-76
2023/09/01 04:19:57;;;;;;;7.65;6.50;;;;;;;12.54;100.00;101186.47;6249987;22;20084;-76
2023/09/01 04:22:24;;;;;;;9.23;7.32;;;;;;;12.55;100.00;101187.19;6221623;22;20128;-76
2023/09/01 04:24:51;;;;;;;10.85;6.85;;;;;;;12.57;100.00;101193.59;6250035;22;20016;-76
2023/09/01 04:27:18;;;;;;;15.23;7.53;;;;;;;12.58;100.00;101191.66;6197365;22;20079;-76
2023/09/01 04:29:45;;;;;;;6.45;5.82;;;;;;;12.59;100.00;101193.16;6197921;22;20335;-76
2023/09/01 04:32:32;;;;;;;5.80;5.15;;;;;;;12.58;100.00;101181.72;6201438;22;20017;-76
2023/09/01 04:34:58;;;;;;;7.00;5.10;;;;;;;12.59;100.00;101188.53;6222675;22;20075;-76
2023/09/01 04:37:25;;;;;;;8.57;5.07;;;;;;;12.59;100.00;101185.88;6248620;22;20016;-76
2023/09/01 04:39:52;;;;;;;13.13;5.78;;;;;;;12.59;100.00;101180.53;6222652;22;20025;-76
2023/09/01 04:42:18;;;;;;;6.95;5.30;;;;;;;12.60;100.00;101173.25;6249394;22;20064;-76
2023/09/01 04:44:45;;;;;;;9.35;5.43;;;;;;;12.62;100.00;101182.31;6223274;22;20017;-76
2023/09/01 04:47:12;;;;;;;10.45;5.97;;;;;;;12.63;100.00;101177.72;6222450;22;20017;-76
2023/09/01 04:49:39;;;;;;;9.23;6.72;;;;;;;12.64;100.00;101179.22;6222212;22;20359;-76
2023/09/01 04:52:05;;;;;;;8.70;7.10;;;;;;;12.65;100.00;101180.69;6249103;22;20013;-76
2023/09/01 04:54:32;;;;;;;12.80;7.65;;;;;;;12.66;100.00;101184.84;6222256;22;20387;-76
2023/09/01 04:57:01;;;;;;;11.63;8.10;;;;;;;12.67;100.00;101191.69;6249503;22;20079;-76
2023/09/01 04:59:28;;;;;;;9.85;7.68;;;;;;;12.67;100.00;101189.75;6248691;22;20091;-76
2023/09/01 05:01:54;;;;;;;11.50;7.50;;;;;;;12.70;100.00;101198.81;6249419;22;20084;-76
2023/09/01 05:04:21;;;;;;;14.98;7.75;;;;;;;12.71;100.00;101200.31;6196666;22;20025;-77
2023/09/01 05:06:48;;;;;;;11.57;8.20;;;;;;;12.75;100.00;101213.53;6222044;22;20013;-76
2023/09/01 05:09:15;;;;;;;15.45;8.23;;;;;;;12.76;100.00;101210.41;6222286;22;20035;-76
2023/09/01 05:11:42;;;;;;;14.60;8.52;;;;;;;12.78;100.00;101202.69;6222017;22;20020;-76
2023/09/01 05:14:08;;;;;;;11.18;7.80;;;;;;;12.80;100.00;101213.66;6222332;22;20025;-77
2023/09/01 05:16:35;;;;;;;12.35;7.97;;;;;;;12.82;100.00;101205.94;6222422;22;20075;-76
2023/09/01 05:19:02;;;;;;;16.58;8.30;;;;;;;12.85;100.00;101202.38;6222874;22;20037;-76
2023/09/01 05:21:29;;;;;;;10.88;8.15;;;;;;;12.89;100.00;101212.94;6221094;22;20017;-76
2023/09/01 05:23:56;;;;;;;12.27;8.23;;;;;;;12.92;100.00;101212.03;6222386;22;20366;-76
2023/09/01 05:26:22;;;;;;;14.00;8.05;;;;;;;12.95;100.00;101211.91;6222229;22;20013;-76
2023/09/01 05:28:49;;;;;;;11.93;8.25;;;;;;;12.99;100.00;101214.44;6222676;22;20024;-76
2023/09/01 05:31:15;;;;;;;10.77;8.82;;;;;;;13.01;100.00;101202.13;6249505;22;20091;-76
2023/09/01 05:33:46;;;;;;;14.43;8.50;;;;;;;13.03;100.00;101213.09;6250352;22;20021;-77
2023/09/01 05:36:13;;;;;;;11.60;8.02;;;;;;;13.07;100.00;101204.94;6221257;22;20433;-76
2023/09/01 05:38:39;;;;;;;15.43;8.50;;;;;;;13.09;100.00;101210.59;6247718;22;20410;-76
2023/09/01 05:41:06;;;;;;;11.93;8.73;;;;;;;13.12;100.00;101204.34;6222014;22;20017;-75
2023/09/01 05:43:33;;;;;;;11.63;8.68;;;;;;;13.14;100.00;101211.94;6222139;22;20109;-77
2023/09/01 05:46:00;;;;;;;14.60;8.85;;;;;;;13.15;100.00;101205.41;6222172;22;20450;-77
2023/09/01 05:48:27;;;;;;;11.13;8.35;;;;;;;13.18;100.00;101196.50;6221009;22;20020;-76
2023/09/01 05:50:55;;;;;;;14.82;8.80;;;;;;;13.20;100.00;101202.88;6197392;22;20101;-76
2023/09/01 05:53:22;;;;;;;14.90;8.57;;;;;;;13.22;100.00;101200.50;6221385;22;20024;-76
2023/09/01 05:55:49;;;;;;;14.23;9.05;;;;;;;13.24;100.00;101200.78;6249523;22;20521;-76
2023/09/01 05:58:15;;;;;;;17.42;8.98;;;;;;;13.28;100.00;101195.31;6221853;22;20092;-77
2023/09/01 06:00:42;;;;;;;15.57;8.23;;;;;;;13.31;100.00;101195.16;6221848;22;20016;-76
2023/09/01 06:03:09;;;;;;;16.13;8.02;;;;;;;13.34;100.00;101201.53;6248258;22;20075;-76
2023/09/01 06:05:36;;;;;;;16.23;8.52;;;;;;;13.37;100.00;101189.97;6248997;22;20047;-76
2023/09/01 06:08:02;;;;;;;11.48;8.02;;;;;;;13.43;100.00;101196.19;6221883;22;20028;-76
2023/09/01 06:10:29;;;;;;;17.10;8.95;;;;;;;13.48;100.00;101197.53;6248718;22;20538;-76
2023/09/01 06:12:56;;;;;;;12.43;9.02;;;;;;;13.53;100.00;101204.94;6249355;22;20001;-76
2023/09/01 06:15:22;;;;;;;11.23;8.25;;;;;;;13.57;100.00;101202.88;6248322;22;20024;-76
2023/09/01 06:17:49;;;;;;;15.90;8.68;;;;;;;13.60;100.00;101201.94;6221315;22;20104;-76
2023/09/01 06:20:15;;;;;;;11.00;8.27;;;;;;;13.64;100.00;101205.22;6248847;22;20178;-75
2023/09/01 06:22:46;;;;;;;11.35;7.95;;;;;;;13.69;100.00;101210.69;6249103;22;20024;-76
2023/09/01 06:25:12;;;;;;;13.82;8.73;;;;;;;13.73;100.00;101212.47;6221771;22;20024;-75
2023/09/01 06:27:39;;;;;;;18.92;8.80;;;;;;;13.76;100.00;101212.31;6221411;22;20020;-76
2023/09/01 06:30:06;;;;;;;12.57;8.00;;;;;;;13.80;100.00;101217.53;6222056;22;20016;-75
2023/09/01 06:32:33;;;;;;;8.95;7.93;;;;;;;13.85;100.00;101222.28;6220978;22;20028;-79
2023/09/01 06:35:00;;;;;;;16.15;8.80;;;;;;;13.86;100.00;101221.81;6222165;22;20443;-75
2023/09/01 06:37:26;;;;;;;12.15;8.40;;;;;;;13.93;100.00;101223.44;6248386;22;20017;-79
2023/09/01 06:39:53;;;;;;;11.23;8.27;;;;;;;13.98;100.00;101234.28;6221121;22;20075;-80
2023/09/01 06:42:20;;;;;;;13.82;7.88;;;;;;;14.02;100.00;101223.41;6221301;22;20044;-78
2023/09/01 06:44:48;;;;;;;16.58;8.63;;;;;;;14.07;100.00;101225.47;6248633;22;20083;-76
2023/09/01 06:47:14;;;;;;;13.85;7.70;;;;;;;14.13;100.00;101226.34;6247968;22;20047;-78
2023/09/01 06:49:41;;;;;;;16.48;8.43;;;;;;;14.21;100.00;101224.09;6221429;22;20021;-77
2023/09/01 06:52:08;;;;;;;11.63;7.95;;;;;;;14.26;100.00;101215.44;6196236;22;20127;-78
2023/09/01 06:54:34;;;;;;;14.13;7.75;;;;;;;14.31;100.00;101223.59;6248617;22;20017;-79
2023/09/01 06:57:01;;;;;;;10.65;7.72;;;;;;;14.36;100.00;101230.28;6248708;22;20016;-80
2023/09/01 06:59:27;;;;;;;13.45;7.88;;;;;;;14.40;100.00;101232.78;6221310;22;20017;-79
2023/09/01 07:01:54;;;;;;;10.60;7.18;;;;;;;14.44;100.00;101234.13;6221262;22;20027;-79
2023/09/01 07:04:21;;;;;;;11.75;7.80;;;;;;;14.46;100.00;101236.34;6248140;22;20024;-78
2023/09/01 07:06:48;;;;;;;14.45;7.85;;;;;;;14.49;100.00;101238.88;6248991;22;20706;-79
2023/09/01 07:09:15;;;;;;;13.13;7.88;;;;;;;14.52;100.00;101243.31;6221527;22;20436;-77
2023/09/01 07:11:41;;;;;;;10.90;7.10;;;;;;;14.55;100.00;101226.34;6247743;22;20041;-80
2023/09/01 07:14:08;;;;;;;8.88;7.50;;;;;;;14.59;100.00;101221.56;6248286;22;20439;-79
2023/09/01 07:16:35;;;;;;;10.98;7.40;;;;;;;14.62;100.00;101227.94;6220829;22;20012;-79
2023/09/01 07:19:01;;;;;;;16.33;7.53;;;;;;;14.64;100.00;101228.22;6248697;22;20434;-79
2023/09/01 07:21:28;;;;;;;15.63;7.22;;;;;;;14.69;100.00;101230.28;6222185;22;20051;-82
2023/09/01 07:23:54;;;;;;;12.90;7.22;;;;;;;14.71;100.00;101227.16;6250964;22;20467;-86
2023/09/01 07:26:21;;;;;;;15.25;7.07;;;;;;;14.75;100.00;101227.72;6223460;22;20067;-83
2023/09/01 07:28:48;;;;;;;11.25;7.38;;;;;;;14.78;100.00;101232.19;6223308;22;20019;-79
2023/09/01 07:31:14;;;;;;;8.90;7.32;;;;;;;14.80;100.00;101225.13;6221837;22;20025;-78
2023/09/01 07:33:41;;;;;;;13.52;8.35;;;;;;;14.84;100.00;101216.94;6222739;22;20021;-78
2023/09/01 07:36:12;;;;;;;14.63;7.13;;;;;;;14.90;100.00;101218.53;6223115;22;20041;-78
2023/09/01 07:38:38;;;;;;;13.43;7.32;;;;;;;14.92;100.00;101221.50;6222469;22;20426;-78
2023/09/01 07:41:07;;;;;;;12.18;7.68;;;;;;;14.95;100.00;101217.91;6249872;22;20017;-79
2023/09/01 07:43:34;;;;;;;11.98;7.18;;;;;;;14.98;100.00;101216.25;6249856;22;20019;-78
2023/09/01 07:46:02;;;;;;;10.43;7.57;;;;;;;15.01;100.00;101207.28;6249588;22;20044;-78
2023/09/01 07:48:29;;;;;;;11.32;7.47;;;;;;;15.05;100.00;101201.75;6249313;22;20446;-79
2023/09/01 07:50:56;;;;;;;11.43;7.32;;;;;;;15.06;100.00;101201.28;6250007;22;20456;-79
2023/09/01 07:53:22;;;;;;;10.70;7.22;;;;;;;15.08;99.80;101208.88;6222464;22;20093;-78
2023/09/01 07:55:49;;;;;;;13.10;7.35;;;;;;;15.13;99.73;101200.19;6250128;22;20013;-78
2023/09/01 07:58:15;;;;;;;12.55;7.10;;;;;;;15.18;99.82;101210.28;6249430;22;20071;-78
2023/09/01 08:00:43;;;;;;;12.50;7.50;;;;;;;15.21;99.59;101203.97;6249101;22;20020;-78
2023/09/01 08:03:13;;;;;;;11.57;7.22;;;;;;;15.25;99.86;101209.91;6222489;22;20079;-79
2023/09/01 08:05:40;;;;;;;14.35;6.63;;;;;;;15.25;98.79;101215.28;6222170;22;20016;-77
2023/09/01 08:08:07;;;;;;;11.77;7.13;;;;;;;15.26;98.38;101214.06;6197628;22;20095;-78
2023/09/01 08:10:34;;;;;;;9.30;7.28;;;;;;;15.27;98.42;101216.31;6223102;22;20451;-79
2023/09/01 08:13:01;;;;;;;11.15;7.22;;;;;;;15.33;98.67;101221.78;6223344;22;20020;-79
2023/09/01 08:15:28;;;;;;;12.20;6.85;;;;;;;15.37;98.59;101219.66;6248682;22;20460;-78
2023/09/01 08:17:54;;;;;;;13.85;6.65;;;;;;;15.42;97.78;101223.63;6222593;22;20434;-78
2023/09/01 08:20:22;;;;;;;9.75;7.50;;;;;;;15.46;97.14;101230.31;6249256;22;20100;-78
2023/09/01 08:22:49;;;;;;;13.63;7.43;;;;;;;15.49;97.17;101237.44;6250048;22;20045;-79
2023/09/01 08:25:15;;;;;;;10.80;6.95;;;;;;;15.54;97.21;101238.75;6249708;22;20012;-78
2023/09/01 08:27:42;;;;;;;23.35;6.88;;;;;;;15.56;97.65;101241.69;6222738;22;20096;-78
2023/09/01 08:30:10;;;;;;;13.70;6.85;;;;;;;15.56;96.04;101241.69;6248856;22;20025;-78
2023/09/01 08:32:40;;;;;;;9.05;6.72;;;;;;;15.57;95.73;101233.22;6249392;22;20016;-78
2023/09/01 08:35:10;;;;;;;9.90;6.82;;;;;;;15.62;95.55;101231.81;6249615;22;20017;-78
2023/09/01 08:37:37;;;;;;;10.45;6.82;;;;;;;15.66;95.63;101224.31;6249455;22;20028;-78
2023/09/01 08:40:05;;;;;;;10.32;7.03;;;;;;;15.69;95.54;101239.50;6249535;22;20021;-78
2023/09/01 08:42:33;;;;;;;13.90;7.03;;;;;;;15.73;95.79;101240.06;6249048;22;20435;-78
2023/09/01 08:45:00;;;;;;;9.30;6.75;;;;;;;15.76;94.97;101235.72;6249828;22;20009;-78
2023/09/01 08:47:32;;;;;;;11.43;6.78;;;;;;;15.76;94.87;101239.13;6248737;22;20136;-78
2023/09/01 08:49:59;;;;;;;;;;;;;;;15.84;94.91;101236.81;6250602;22;20027;-78
2023/09/01 08:52:26;;;;;;;13.65;5.63;;;;;;;15.86;94.52;101239.78;6222418;22;19970;-78
2023/09/01 08:54:53;;;;;;;12.13;7.25;;;;;;;15.91;94.28;101247.19;6250016;22;20093;-80
2023/09/01 08:57:21;;;;;;;18.73;6.43;;;;;;;15.97;94.39;101250.72;6248501;22;20112;-77
2023/09/01 08:59:48;;;;;;;9.50;6.18;;;;;;;15.94;93.82;101247.00;6249934;22;20032;-80
2023/09/01 09:02:14;;;;;;;7.20;5.95;;;;;;;15.97;93.60;101246.09;6249470;22;20036;-79
2023/09/01 09:04:42;;;;;;;7.35;6.45;;;;;;;16.02;94.18;101247.34;6249403;22;20017;-80
2023/09/01 09:07:17;;;;;;;9.27;6.53;;;;;;;15.99;93.51;101237.56;6249791;22;20017;-80
2023/09/01 09:09:55;;;;;;;11.02;6.82;;;;;;;15.98;93.91;101242.19;6249990;22;20021;-80
2023/09/01 09:12:23;;;;;;;7.03;6.32;;;;;;;16.04;93.90;101234.19;6248728;22;20019;-80
2023/09/01 09:14:52;;;;;;;10.15;6.15;;;;;;;16.08;93.92;101236.69;6250165;22;20016;-80
2023/09/01 09:17:40;;;;;;;7.60;6.78;;;;;;;16.13;93.94;101233.38;6248660;22;20022;-80
2023/09/01 09:20:07;;;;;;;10.07;6.68;;;;;;;16.13;93.90;101239.47;6249283;22;20480;-78
2023/09/01 09:22:48;;;;;;;8.65;6.53;;;;;;;16.16;93.39;101235.13;6249258;22;20013;-80
2023/09/01 09:25:34;;;;;;;;;;;;;;;16.20;93.57;101238.34;6249945;22;20521;-79
2023/09/01 09:28:12;;;;;;;12.00;6.07;;;;;;;16.20;93.51;101243.72;6249527;22;19954;-79
2023/09/01 09:30:50;;;;;;;8.45;6.45;;;;;;;16.23;93.27;101240.13;6249414;22;20017;-82
2023/09/01 09:33:27;;;;;;;8.50;6.45;;;;;;;16.29;94.02;101240.94;6248799;22;20022;-79
2023/09/01 09:35:54;;;;;;;10.63;6.50;;;;;;;16.32;93.31;101248.81;6249472;22;20467;-79
2023/09/01 09:38:21;;;;;;;8.65;6.25;;;;;;;16.32;92.93;101253.44;6248661;22;20025;-80
2023/09/01 09:40:59;;;;;;;7.13;6.40;;;;;;;16.37;92.86;101258.16;6248420;22;20054;-79
2023/09/01 09:43:27;;;;;;;10.13;6.43;;;;;;;16.40;92.95;101267.94;6248319;22;20123;-84
2023/09/01 09:45:54;;;;;;;8.65;6.78;;;;;;;16.46;92.90;101268.78;6222563;22;20020;-84
2023/09/01 09:48:21;;;;;;;8.25;6.05;;;;;;;16.44;92.50;101265.06;6221487;22;20406;-84
2023/09/01 09:50:51;;;;;;;6.55;5.90;;;;;;;16.49;93.29;101269.78;6197359;22;20031;-84
2023/09/01 09:53:23;;;;;;;8.00;6.38;;;;;;;16.52;93.44;101271.53;6221868;22;20016;-83
2023/09/01 09:55:53;;;;;;;11.48;6.50;;;;;;;16.49;92.29;101269.78;6222324;22;20207;-84
2023/09/01 09:58:39;;;;;;;7.25;6.00;;;;;;;16.50;92.58;101269.31;6221122;22;20024;-82
2023/09/01 10:01:15;;;;;;;12.50;6.28;;;;;;;16.51;92.14;101276.19;6249709;22;20016;-81
2023/09/01 10:03:43;;;;;;;7.45;6.40;;;;;;;16.53;93.00;101281.09;6249259;22;20016;-82
2023/09/01 10:06:10;;;;;;;7.75;5.82;;;;;;;16.57;92.56;101289.69;6249054;22;20484;-83
2023/09/01 10:08:37;;;;;;;11.43;6.05;;;;;;;16.56;92.28;101286.28;6249081;22;20013;-83
2023/09/01 10:11:06;;;;;;;9.18;6.35;;;;;;;16.54;91.50;101290.63;6248766;22;20075;-82
2023/09/01 10:13:34;;;;;;;9.68;6.60;;;;;;;16.59;91.67;101290.72;6221675;22;20023;-83
2023/09/01 10:16:01;;;;;;;9.80;6.07;;;;;;;16.63;91.55;101293.22;6249369;22;20012;-83
2023/09/01 10:18:28;;;;;;;6.55;5.70;;;;;;;16.65;91.95;101296.19;6221636;22;20017;-82
2023/09/01 10:20:55;;;;;;;10.52;5.88;;;;;;;16.66;91.49;101293.03;6249132;22;20049;-83
2023/09/01 10:23:22;;;;;;;7.03;5.85;;;;;;;16.65;91.11;101291.56;6248766;22;20446;-83
2023/09/01 10:26:11;;;;;;;10.68;6.32;;;;;;;16.74;91.49;101296.09;6222365;22;20041;-82
2023/09/01 10:28:59;;;;;;;6.00;5.50;;;;;;;16.79;91.62;101292.00;6249256;22;20093;-82
2023/09/01 10:31:28;;;;;;;6.53;5.30;;;;;;;16.80;92.76;101298.81;6248663;22;20044;-82
2023/09/01 10:34:08;;;;;;;7.50;5.97;;;;;;;16.82;91.61;101299.09;6249158;22;20017;-80
2023/09/01 10:36:36;;;;;;;7.57;5.78;;;;;;;16.84;91.65;101304.75;6248896;22;20083;-78
2023/09/01 10:39:21;;;;;;;13.07;5.75;;;;;;;16.86;91.74;101305.00;6221426;22;20439;-79
2023/09/01 10:41:53;;;;;;;10.43;5.90;;;;;;;16.88;91.82;101292.59;6249339;22;20047;-80
2023/09/01 10:44:21;;;;;;;11.95;5.70;;;;;;;16.90;91.48;101297.50;6248581;22;20092;-77
2023/09/01 10:46:49;;;;;;;20.50;5.97;;;;;;;16.91;91.31;101298.97;6249067;22;20048;-78
2023/09/01 10:49:15;;;;;;;8.93;5.55;;;;;;;16.97;91.05;101297.09;6248657;22;20413;-79
2023/09/01 10:51:43;;;;;;;9.60;5.70;;;;;;;17.03;91.31;101289.09;6248505;22;20021;-78
2023/09/01 10:54:15;;;;;;;9.18;5.38;;;;;;;17.07;91.23;101287.69;6248634;22;20019;-79
2023/09/01 10:56:59;;;;;;;9.02;6.00;;;;;;;17.13;91.16;101285.81;6223416;22;20024;-78
2023/09/01 10:59:31;;;;;;;7.03;5.80;;;;;;;17.21;90.68;101283.44;6222455;22;20016;-79
2023/09/01 11:02:16;;;;;;;10.35;6.20;;;;;;;17.31;90.85;101285.53;6250348;22;20021;-77
2023/09/01 11:04:43;;;;;;;6.10;5.50;;;;;;;17.36;90.48;101273.34;6250255;22;20017;-77
2023/09/01 11:07:11;;;;;;;9.98;5.75;;;;;;;17.43;90.11;101275.63;6249959;22;20048;-77
2023/09/01 11:09:42;;;;;;;13.13;6.30;;;;;;;17.51;90.74;101287.44;6249848;22;20430;-79
2023/09/01 11:12:11;;;;;;;11.32;6.43;;;;;;;17.49;89.54;101289.88;6250021;22;20447;-77
2023/09/01 11:14:52;;;;;;;8.38;6.22;;;;;;;17.48;90.36;101284.97;6249950;22;20096;-79
2023/09/01 11:17:38;;;;;;;10.30;6.13;;;;;;;17.51;91.04;101281.31;6249960;22;20012;-79
2023/09/01 11:20:08;;;;;;;11.30;6.80;;;;;;;17.51;90.51;101290.16;6223238;22;20455;-78
2023/09/01 11:22:37;;;;;;;7.53;6.90;;;;;;;17.53;90.41;101290.41;6249375;22;20020;-78
2023/09/01 11:25:07;;;;;;;8.60;6.38;;;;;;;17.53;90.80;101300.44;6250591;22;20013;-79